Flight Track Log - Related Links

Times and Time Zones

All times are in EDT time to prevent confusion due to time zone crossing. See the JBU1212 flight status page for this flight to view local times or setup timezone preferences in your user account.

Time Position Orientation Groundspeed Altitude Reporting Facility
EDT Latitude Longitude Course Direction KTS MPH feet Rate Location/Type
Sat 09:27:09 AM 42.9333 -78.7500 93° East 165 190 1,700  Level Buffalo TRACON
Sat 09:27:57 AM 42.9000 -78.7833 216° Southwest 164 189 3,000 1,680 Climbing Buffalo TRACON
Sat 09:28:24 AM 42.8717 -78.7986 202° Southwest 234 269 3,800 2,552 Climbing Cleveland Center
Sat 09:29:24 AM 42.8578 -78.7194 103° East 260 299 6,700 3,050 Climbing Cleveland Center
Sat 09:30:00 AM 42.9163 -78.1708 90° East  Level Estimated
Sat 09:30:24 AM 42.8625 -78.6175 86° East 292 336 9,900  Level Cleveland Center
Sat 09:31:00 AM 42.9099 -78.0309 90° East  Level Estimated
Sat 09:31:24 AM 42.8644 -78.5011 89° East 292 336 11,900  Level Cleveland Center
Sat 09:32:00 AM 42.9032 -77.8911 93° East  Level Estimated
Sat 09:32:24 AM 42.8683 -78.3736 88° East 312 359 14,700  Level Cleveland Center
Sat 09:33:24 AM 42.8722 -78.2431 88° East 333 383 17,300 2,300 Climbing Cleveland Center
Sat 09:34:24 AM 42.8733 -78.1044 89° East 348 400 19,300 2,100 Climbing Cleveland Center
Sat 09:35:24 AM 42.8764 -77.9597 88° East 361 415 21,500 2,150 Climbing Cleveland Center
Sat 09:36:24 AM 42.8814 -77.8122 87° East 374 430 23,600 1,900 Climbing Cleveland Center
Sat 09:37:24 AM 42.8817 -77.6592 90° East 387 445 25,300 1,539 Climbing Cleveland Center
Sat 09:38:56 AM 42.8847 -77.4369 89° East 414 476 27,500 1,382 Climbing Boston Center
Sat 09:39:56 AM 42.8875 -77.2756 89° East 419 482 28,800 1,400 Climbing Boston Center
Sat 09:40:56 AM 42.8903 -77.1083 89° East 419 482 30,300 1,100 Climbing Boston Center
Sat 09:41:56 AM 42.8886 -76.9439 91° East 425 489 31,000 350 Climbing Boston Center
Sat 09:42:56 AM 42.8825 -76.7789 93° East 430 495 31,000  Level Boston Center
Sat 09:43:56 AM 42.8783 -76.6086 92° East 436 502 31,000  Level Boston Center
Sat 09:44:56 AM 42.8719 -76.4408 93° East 442 509 31,000  Level Boston Center
Sat 09:45:56 AM 42.8653 -76.2703 93° East 442 509 31,000  Level Boston Center
Sat 09:46:56 AM 42.8583 -76.1056 93° East 442 509 31,000  Level Boston Center
Sat 09:47:56 AM 42.8531 -75.9353 92° East 442 509 31,000  Level Boston Center
Sat 09:48:56 AM 42.8456 -75.7678 93° East 442 509 31,000  Level Boston Center
Sat 09:49:56 AM 42.8381 -75.5975 93° East 442 509 31,000  Level Boston Center
Sat 09:50:56 AM 42.8322 -75.4300 93° East 442 509 31,000  Level Boston Center
Sat 09:51:56 AM 42.8219 -75.2625 95° East 442 509 31,000  Level Boston Center
Sat 09:52:56 AM 42.8156 -75.0953 93° East 442 509 31,000  Level Boston Center
Sat 09:53:56 AM 42.8067 -74.9278 94° East 442 509 31,000  Level Boston Center
Sat 09:54:56 AM 42.8000 -74.7578 93° East 442 509 31,000  Level Boston Center
Sat 09:55:56 AM 42.7906 -74.5903 94° East 442 509 31,000  Level Boston Center
Sat 09:56:56 AM 42.7828 -74.4544 94° East 442 509 31,000  Level Boston Center
Sat 09:57:56 AM 42.7714 -74.2586 94° East 442 509 31,000  Level Boston Center
Sat 09:58:56 AM 42.7636 -74.0917 94° East 442 509 31,000  Level Boston Center
Sat 09:59:56 AM 42.7511 -73.9272 96° East 442 509 31,000  Level Boston Center
Sat 10:00:56 AM 42.7408 -73.7631 95° East 451 519 31,000  Level Boston Center
Sat 10:01:56 AM 42.7261 -73.5764 96° East 446 513 31,000 -50 Level Boston Center
Sat 10:02:56 AM 42.7067 -73.4119 99° East 446 513 30,900 -350 Descending Boston Center
Sat 10:03:56 AM 42.6872 -73.2450 99° East 446 513 30,300 -650 Descending Boston Center
Sat 10:04:56 AM 42.6756 -73.1122 97° East 446 513 29,600 -800 Descending Boston Center
Sat 10:05:56 AM 42.6556 -72.9397 99° East 456 525 28,700 -1,200 Descending Boston Center
Sat 10:06:56 AM 42.6314 -72.7392 99° East 464 534 27,200 -1,650 Descending Boston Center
Sat 10:07:56 AM 42.6192 -72.6036 97° East 444 511 25,400 -2,100 Descending Boston Center
Sat 10:08:56 AM 42.5942 -72.4258 101° East 423 487 23,000 -2,250 Descending Boston Center
Sat 10:09:56 AM 42.5753 -72.2822 100° East 414 476 20,900 -2,050 Descending Boston Center
Sat 10:10:56 AM 42.5583 -72.1639 101° East 386 444 18,900 -2,050 Descending Boston Center
Sat 10:11:56 AM 42.5414 -72.0117 99° East 372 428 16,800 -2,000 Descending Boston Center
Sat 10:12:56 AM 42.5303 -71.8936 97° East 366 421 14,900 -1,950 Descending Boston Center
Sat 10:13:56 AM 42.5172 -71.7500 97° East 352 405 12,900 -1,850 Descending Boston Center
Sat 10:14:56 AM 42.5058 -71.6375 98° East 352 405 11,200 -1,520 Descending Boston Center
Sat 10:15:11 AM 42.5000 -71.5833 98° East 336 387 11,000 -800 Descending KA90
Sat 10:16:11 AM 42.4833 -71.4667 101° East 316 364 10,200 -769 Descending KA90
Sat 10:17:08 AM 42.4833 -71.3667 90° East 273 314 9,500 -769 Descending KA90
Sat 10:18:08 AM 42.4667 -71.2833 105° East 265 305 8,700 -750 Descending KA90
Sat 10:19:08 AM 42.4667 -71.1833 90° East 262 302 8,000 -821 Descending KA90
Sat 10:20:05 AM 42.4500 -71.0833 103° East 259 298 7,100 -973 Descending KA90
Sat 10:20:59 AM 42.4167 -71.0167 124° Southeast 272 313 6,200 -569 Descending KA90
Sat 10:22:01 AM 42.3500 -71.0000 170° South 272 313 6,000 -905 Descending KA90
Sat 10:23:05 AM 42.2667 -70.9500 156° South 272 313 4,300 -1,839 Descending KA90
Sat 10:24:05 AM 42.2333 -71.0167 236° Southwest 215 247 2,200 -1,300 Descending KA90
Sat 10:25:05 AM 42.2833 -71.0333 346° North 170 196 1,700 -650 Descending KA90
Sat 10:26:05 AM 42.3167 -71.0333 360° North 155 178 900 -800 Descending KA90

Login

Don't have an account? Register now (free) for customized features, flight alerts, and more!